Aurora, West Virginia
Current Conditions -  °F | °C
As of 11:35 AM on Friday 31 Oct 2014 (Local Time) from K2G4 Reporting Station
Overcast Overcast  
Wind Chill: 37°   Ceiling: 2900
Heat Index: 41°   Visibility: 10mi
Dew Point: 30°   Wind: 6mph
Humidity: 65%   Direction: 190°S
Pressure: 29.9"   Gusts: NA
Location:  39.32°N, 79.55°W
Report Text: K2G4 311535Z AUTO 19005KT 10SM OVC029 05/M01 A2990 RMK AO1
Loading
Personal Weather Stations






























Interactive Weather Map
Tropical Storm Tracking
New forecast layout! Learn more

10-Day Weather Forecast

Advertisements
Track Severe Weather on mobile